Time;durP1;ratioP1;P1;durP2;ratioP2;P2;SDS_P1;SDS_P2;PMS_P1;PMS_P2;Temp;Humidity;BMP_temperature;BMP_pressure;BME280_temperature;BME280_humidity;BME280_pressure;Samples;Min_cycle;Max_cycle;Signal;HPM_P1;HPM_P2
2023/06/28 00:00:14;;;;;;;4.38;1.60;;;14.30;99.90;;;;;;6327831;22;20478;-77
2023/06/28 00:02:39;;;;;;;4.40;1.70;;;14.20;99.90;;;;;;6250068;22;20316;-76
2023/06/28 00:05:09;;;;;;;6.55;1.70;;;14.30;99.90;;;;;;6327736;22;20090;-77
2023/06/28 00:07:35;;;;;;;4.10;1.60;;;14.30;99.90;;;;;;6249953;22;20087;-77
2023/06/28 00:10:02;;;;;;;2.90;1.40;;;14.30;99.90;;;;;;6249372;22;20015;-77
2023/06/28 00:12:30;;;;;;;4.18;1.80;;;14.30;99.90;;;;;;6250026;22;20141;-77
2023/06/28 00:14:56;;;;;;;4.53;1.55;;;14.30;99.90;;;;;;6250451;22;20018;-77
2023/06/28 00:17:27;;;;;;;3.97;1.67;;;14.20;99.90;;;;;;6249862;22;20069;-77
2023/06/28 00:20:07;;;;;;;4.23;1.70;;;14.20;99.90;;;;;;6250298;22;20454;-77
2023/06/28 00:22:33;;;;;;;4.82;1.60;;;14.20;99.90;;;;;;6275576;22;20779;-77
2023/06/28 00:25:01;;;;;;;5.55;2.10;;;14.20;99.90;;;;;;6249779;22;20012;-76
2023/06/28 00:27:30;;;;;;;5.22;1.70;;;14.20;99.90;;;;;;6274459;22;20008;-76
2023/06/28 00:29:57;;;;;;;7.18;1.55;;;14.10;99.90;;;;;;6275026;22;20465;-76
2023/06/28 00:32:23;;;;;;;4.70;1.55;;;14.20;99.90;;;;;;6249870;22;20441;-76
2023/06/28 00:34:49;;;;;;;4.85;1.90;;;14.10;99.90;;;;;;6275743;22;20338;-77
2023/06/28 00:37:15;;;;;;;6.68;2.13;;;14.10;99.90;;;;;;6301133;22;20008;-76
2023/06/28 00:39:41;;;;;;;7.18;2.28;;;14.00;99.90;;;;;;6249636;22;20342;-76
2023/06/28 00:42:07;;;;;;;6.60;2.13;;;14.00;99.90;;;;;;6275283;22;20035;-76
2023/06/28 00:44:33;;;;;;;9.65;2.40;;;14.00;99.90;;;;;;6275003;22;20011;-76
2023/06/28 00:47:01;;;;;;;6.25;2.10;;;14.00;99.90;;;;;;6249792;22;20008;-76
2023/06/28 00:49:31;;;;;;;5.43;2.20;;;14.00;99.90;;;;;;6275533;22;20012;-76
2023/06/28 00:51:57;;;;;;;6.63;1.90;;;14.00;99.90;;;;;;6249691;22;20020;-76
2023/06/28 00:54:23;;;;;;;5.53;2.42;;;14.00;99.90;;;;;;6273752;22;20011;-76
2023/06/28 00:56:50;;;;;;;4.15;1.73;;;14.00;99.90;;;;;;6249973;22;20327;-76
2023/06/28 00:59:16;;;;;;;6.38;2.00;;;14.10;99.90;;;;;;6272534;22;20012;-76
2023/06/28 01:01:42;;;;;;;5.68;2.22;;;14.10;99.90;;;;;;6270038;22;20069;-76
2023/06/28 01:04:08;;;;;;;6.53;2.20;;;14.00;99.90;;;;;;6242218;22;20450;-76
2023/06/28 01:06:37;;;;;;;5.82;2.30;;;13.90;99.90;;;;;;6326267;22;20049;-76
2023/06/28 01:09:10;;;;;;;7.35;2.40;;;13.90;99.90;;;;;;6243626;22;20020;-76
2023/06/28 01:11:36;;;;;;;5.65;2.53;;;13.90;99.90;;;;;;6244341;22;20027;-77
2023/06/28 01:14:02;;;;;;;7.10;2.35;;;14.00;99.90;;;;;;6244286;22;20047;-76
2023/06/28 01:16:28;;;;;;;8.85;2.50;;;13.90;99.90;;;;;;6268408;22;20043;-77
2023/06/28 01:18:54;;;;;;;6.80;2.50;;;14.00;99.90;;;;;;6261920;22;20016;-77
2023/06/28 01:21:24;;;;;;;8.25;3.20;;;14.00;99.90;;;;;;6264359;22;20022;-77
2023/06/28 01:23:50;;;;;;;8.38;3.03;;;14.10;99.90;;;;;;6262054;22;20087;-77
2023/06/28 01:26:16;;;;;;;7.10;2.60;;;14.10;99.90;;;;;;6322256;22;20473;-77
2023/06/28 01:28:44;;;;;;;9.23;3.40;;;14.00;99.90;;;;;;6290822;22;20026;-77
2023/06/28 01:31:11;;;;;;;7.18;3.05;;;14.00;99.90;;;;;;6263303;22;20075;-77
2023/06/28 01:33:38;;;;;;;6.60;2.70;;;14.10;99.90;;;;;;6262919;22;20019;-76
2023/06/28 01:36:04;;;;;;;8.60;3.00;;;14.10;99.90;;;;;;6237386;22;20022;-76
2023/06/28 01:38:31;;;;;;;8.45;3.15;;;14.10;99.90;;;;;;6236373;22;20011;-77
2023/06/28 01:40:58;;;;;;;12.15;3.92;;;14.10;99.90;;;;;;6318185;22;20031;-77
2023/06/28 01:43:23;;;;;;;8.90;3.40;;;14.10;99.90;;;;;;6261641;22;20011;-77
2023/06/28 01:45:49;;;;;;;6.93;3.53;;;14.10;99.90;;;;;;6265028;22;20086;-76
2023/06/28 01:48:16;;;;;;;8.98;3.15;;;14.10;99.90;;;;;;6261932;22;20023;-76
2023/06/28 01:50:42;;;;;;;8.88;3.08;;;14.10;99.90;;;;;;6262076;22;20023;-77
2023/06/28 01:53:08;;;;;;;7.80;2.92;;;14.10;99.90;;;;;;6314279;22;20453;-77
2023/06/28 01:55:33;;;;;;;9.68;3.38;;;14.10;99.90;;;;;;6294969;22;20077;-77
2023/06/28 01:57:59;;;;;;;7.32;3.00;;;14.10;99.90;;;;;;6300555;22;20015;-76
2023/06/28 02:00:25;;;;;;;6.40;2.85;;;14.00;99.90;;;;;;6269682;22;20054;-76
2023/06/28 02:02:52;;;;;;;6.63;3.00;;;14.00;99.90;;;;;;6288610;22;20078;-77
2023/06/28 02:05:19;;;;;;;9.65;3.17;;;13.90;99.90;;;;;;6238374;22;20015;-76
2023/06/28 02:07:44;;;;;;;7.75;3.40;;;13.90;99.90;;;;;;6324308;22;20008;-76
2023/06/28 02:10:10;;;;;;;8.00;3.10;;;13.90;99.90;;;;;;6224013;22;20065;-76
2023/06/28 02:12:36;;;;;;;7.60;3.20;;;14.00;99.90;;;;;;6326426;22;20346;-76
2023/06/28 02:15:05;;;;;;;6.45;3.15;;;14.00;99.90;;;;;;6320102;22;20085;-77
2023/06/28 02:17:31;;;;;;;7.53;3.13;;;14.00;99.90;;;;;;6267218;22;20098;-76
2023/06/28 02:20:00;;;;;;;7.60;2.97;;;14.00;99.90;;;;;;6261414;22;20012;-76
2023/06/28 02:22:26;;;;;;;7.45;3.10;;;14.10;99.90;;;;;;6262154;22;20016;-77
2023/06/28 02:24:52;;;;;;;8.50;3.70;;;14.10;99.90;;;;;;6291935;22;20091;-77
2023/06/28 02:27:17;;;;;;;8.98;3.67;;;14.10;99.90;;;;;;6242375;22;20047;-76
2023/06/28 02:29:43;;;;;;;8.30;3.15;;;14.10;99.90;;;;;;6262022;22;20761;-77
2023/06/28 02:32:08;;;;;;;7.93;3.70;;;14.10;99.90;;;;;;6313284;22;20489;-77
2023/06/28 02:34:35;;;;;;;7.38;3.42;;;14.10;99.90;;;;;;6237301;22;20018;-77
2023/06/28 02:37:00;;;;;;;7.88;3.17;;;14.10;99.90;;;;;;6236050;22;20015;-76
2023/06/28 02:39:26;;;;;;;8.50;3.50;;;14.10;99.90;;;;;;6313155;22;20038;-76
2023/06/28 02:41:52;;;;;;;7.93;3.22;;;14.10;99.90;;;;;;6288134;22;20081;-76
2023/06/28 02:44:17;;;;;;;9.57;3.65;;;14.10;99.90;;;;;;6236103;22;20011;-76
2023/06/28 02:46:43;;;;;;;9.80;3.78;;;14.10;99.90;;;;;;6313872;22;20015;-77
2023/06/28 02:49:08;;;;;;;10.70;3.70;;;14.10;99.90;;;;;;6236625;22;20114;-76
2023/06/28 02:51:34;;;;;;;9.68;3.92;;;14.10;99.90;;;;;;6235411;22;20051;-78
2023/06/28 02:54:00;;;;;;;9.38;3.70;;;14.10;99.90;;;;;;6262338;22;20022;-77
2023/06/28 02:56:26;;;;;;;11.95;4.03;;;14.10;99.90;;;;;;6245390;22;20019;-76
2023/06/28 02:58:52;;;;;;;10.05;4.45;;;14.10;99.90;;;;;;6238005;22;20015;-76
2023/06/28 03:01:20;;;;;;;10.00;3.90;;;14.20;99.90;;;;;;6249037;22;20014;-76
2023/06/28 03:03:46;;;;;;;9.13;3.90;;;14.20;99.90;;;;;;6249464;22;20057;-76
2023/06/28 03:06:11;;;;;;;7.97;3.85;;;14.20;99.90;;;;;;6250792;22;20082;-76
2023/06/28 03:08:37;;;;;;;8.85;3.88;;;14.20;99.90;;;;;;6248466;22;20058;-76
2023/06/28 03:11:03;;;;;;;8.02;3.63;;;14.20;99.90;;;;;;6274125;22;20015;-76
2023/06/28 03:13:28;;;;;;;9.40;4.30;;;14.20;99.90;;;;;;6237602;22;20045;-76
2023/06/28 03:15:54;;;;;;;8.32;4.30;;;14.30;99.90;;;;;;6245434;22;20341;-76
2023/06/28 03:18:19;;;;;;;10.68;4.25;;;14.20;99.90;;;;;;6315650;22;20020;-76
2023/06/28 03:20:45;;;;;;;9.40;4.75;;;14.30;99.90;;;;;;6238221;22;20026;-76
2023/06/28 03:23:10;;;;;;;12.73;4.80;;;14.20;99.90;;;;;;6289779;22;20012;-76
2023/06/28 03:25:36;;;;;;;11.27;4.80;;;14.30;99.90;;;;;;6243137;22;20091;-76
2023/06/28 03:28:02;;;;;;;11.15;4.80;;;14.30;99.90;;;;;;6267182;22;20735;-76
2023/06/28 03:30:27;;;;;;;12.50;5.75;;;14.30;99.90;;;;;;6263299;22;20095;-77
2023/06/28 03:32:53;;;;;;;10.95;4.95;;;14.30;99.90;;;;;;6314685;22;20016;-76
2023/06/28 03:35:18;;;;;;;9.20;5.18;;;14.40;99.90;;;;;;6238432;22;20019;-77
2023/06/28 03:37:55;;;;;;;10.35;4.88;;;14.40;99.90;;;;;;6238371;22;20011;-77
2023/06/28 03:40:21;;;;;;;11.43;5.07;;;14.40;99.90;;;;;;6264783;22;20461;-76
2023/06/28 03:42:48;;;;;;;10.25;4.85;;;14.30;99.90;;;;;;6265532;22;20015;-76
2023/06/28 03:45:14;;;;;;;9.73;4.82;;;14.40;99.90;;;;;;6263951;22;20389;-76
2023/06/28 03:47:40;;;;;;;11.05;4.88;;;14.40;99.90;;;;;;6238009;22;20008;-76
2023/06/28 03:50:06;;;;;;;10.65;5.03;;;14.40;99.90;;;;;;6315227;22;20026;-77
2023/06/28 03:52:32;;;;;;;12.23;5.03;;;14.50;99.90;;;;;;6237362;22;20067;-77
2023/06/28 03:54:57;;;;;;;10.48;4.80;;;14.50;99.90;;;;;;6268418;22;20047;-76
2023/06/28 03:57:23;;;;;;;9.82;4.68;;;14.60;99.90;;;;;;6327662;22;20008;-76
2023/06/28 03:59:49;;;;;;;10.73;5.15;;;14.50;99.90;;;;;;6239700;22;20453;-76
2023/06/28 04:02:14;;;;;;;10.65;5.00;;;14.50;99.90;;;;;;6294528;22;20118;-76
2023/06/28 04:04:40;;;;;;;9.40;4.75;;;14.50;99.90;;;;;;6291153;22;20011;-76
2023/06/28 04:07:06;;;;;;;9.60;4.60;;;14.50;99.90;;;;;;6238112;22;20015;-76
2023/06/28 04:09:32;;;;;;;9.98;5.15;;;14.50;99.90;;;;;;6315065;22;20026;-76
2023/06/28 04:11:57;;;;;;;10.43;4.65;;;14.50;99.90;;;;;;6245067;22;20450;-76
2023/06/28 04:14:24;;;;;;;10.48;4.35;;;14.50;99.90;;;;;;6300992;22;20015;-76
2023/06/28 04:16:52;;;;;;;11.13;4.90;;;14.60;99.90;;;;;;6270476;22;20099;-76
2023/06/28 04:19:18;;;;;;;13.32;5.07;;;14.60;99.90;;;;;;6263315;22;20537;-76
2023/06/28 04:21:43;;;;;;;7.35;4.32;;;14.60;99.90;;;;;;6238022;22;20122;-76
2023/06/28 04:24:09;;;;;;;9.88;4.95;;;14.60;99.90;;;;;;6288583;22;20012;-76
2023/06/28 04:26:34;;;;;;;11.30;4.63;;;14.60;99.90;;;;;;6318709;22;20390;-76
2023/06/28 04:29:00;;;;;;;11.20;4.93;;;14.70;99.90;;;;;;6239577;22;20466;-76
2023/06/28 04:31:27;;;;;;;10.27;5.20;;;14.70;99.90;;;;;;6288655;22;20020;-76
2023/06/28 04:33:55;;;;;;;9.65;4.43;;;14.70;99.90;;;;;;6264901;22;20061;-76
2023/06/28 04:36:21;;;;;;;11.35;4.70;;;14.70;99.90;;;;;;6288075;22;20011;-76
2023/06/28 04:38:52;;;;;;;11.27;5.30;;;14.70;99.90;;;;;;6237504;22;20022;-76
2023/06/28 04:41:25;;;;;;;9.98;4.82;;;14.70;99.90;;;;;;6262958;22;20019;-76
2023/06/28 04:43:55;;;;;;;10.02;4.25;;;14.70;99.90;;;;;;6262872;22;20094;-77
2023/06/28 04:46:27;;;;;;;10.65;4.13;;;14.80;99.90;;;;;;6238017;22;20103;-77
2023/06/28 04:48:53;;;;;;;;;;;14.80;99.90;;;;;;6238480;22;20026;-76
2023/06/28 04:51:20;;;;;;;10.35;4.63;;;14.80;99.90;;;;;;6262741;22;19992;-76
2023/06/28 04:53:46;;;;;;;10.05;4.63;;;14.80;99.90;;;;;;6236890;22;20057;-76
2023/06/28 04:56:12;;;;;;;9.27;4.05;;;14.80;99.90;;;;;;6244570;22;20019;-77
2023/06/28 04:58:38;;;;;;;8.98;4.50;;;14.80;99.90;;;;;;6265652;22;20345;-77
2023/06/28 05:01:10;;;;;;;9.40;4.45;;;14.80;99.90;;;;;;6297128;22;20349;-76
2023/06/28 05:03:38;;;;;;;8.65;4.30;;;14.90;99.90;;;;;;6291643;22;20011;-76
2023/06/28 05:06:06;;;;;;;11.18;4.22;;;14.90;99.90;;;;;;6262900;22;20015;-76
2023/06/28 05:08:32;;;;;;;10.23;4.20;;;14.90;99.90;;;;;;6237340;22;20094;-76
2023/06/28 05:10:58;;;;;;;8.18;4.15;;;15.00;99.90;;;;;;6267568;22;20434;-76
2023/06/28 05:13:24;;;;;;;8.60;4.85;;;15.00;99.90;;;;;;6236250;22;20099;-76
2023/06/28 05:15:50;;;;;;;9.38;4.53;;;15.00;99.90;;;;;;6268639;22;20039;-76
2023/06/28 05:18:17;;;;;;;9.23;4.13;;;15.00;99.90;;;;;;6237300;22;20250;-77
2023/06/28 05:20:43;;;;;;;8.95;4.20;;;15.10;99.90;;;;;;6240518;22;20018;-77
2023/06/28 05:23:13;;;;;;;9.98;4.35;;;15.10;99.90;;;;;;6272984;22;20042;-77
2023/06/28 05:25:40;;;;;;;9.63;4.43;;;15.10;99.90;;;;;;6274078;22;20083;-76
2023/06/28 05:28:06;;;;;;;7.13;4.40;;;15.10;99.90;;;;;;6249650;22;20020;-77
2023/06/28 05:30:32;;;;;;;9.88;4.68;;;15.10;99.90;;;;;;6249719;22;20389;-76
2023/06/28 05:33:01;;;;;;;9.50;4.40;;;15.20;99.90;;;;;;6274773;22;20022;-76
2023/06/28 05:35:27;;;;;;;11.25;4.18;;;15.20;99.90;;;;;;6249242;22;20026;-77
2023/06/28 05:37:53;;;;;;;9.43;4.43;;;15.30;99.90;;;;;;6275110;22;20042;-77
2023/06/28 05:40:18;;;;;;;10.25;4.68;;;15.30;99.90;;;;;;6300946;22;20008;-77
2023/06/28 05:42:44;;;;;;;9.82;4.75;;;15.30;99.90;;;;;;6326366;22;20007;-77
2023/06/28 05:45:10;;;;;;;9.98;4.53;;;15.40;99.90;;;;;;6249222;22;20007;-77
2023/06/28 05:47:35;;;;;;;8.73;4.32;;;15.40;99.90;;;;;;6274692;22;20008;-76
2023/06/28 05:50:01;;;;;;;10.80;4.30;;;15.40;99.90;;;;;;6300503;22;20345;-77
2023/06/28 05:52:26;;;;;;;8.98;3.95;;;15.40;99.90;;;;;;6248884;22;20004;-76
2023/06/28 05:54:52;;;;;;;7.88;4.43;;;15.40;99.90;;;;;;6325999;22;20011;-77
2023/06/28 05:57:18;;;;;;;8.50;4.35;;;15.50;99.90;;;;;;6249330;22;20008;-76
2023/06/28 05:59:44;;;;;;;9.52;4.40;;;15.50;99.90;;;;;;6300728;22;20008;-76
2023/06/28 06:02:09;;;;;;;9.32;3.85;;;15.50;99.90;;;;;;6274863;22;20094;-76
2023/06/28 06:04:35;;;;;;;8.90;4.25;;;15.50;99.90;;;;;;6248610;22;20011;-77
2023/06/28 06:07:01;;;;;;;9.13;4.00;;;15.60;99.90;;;;;;6248776;22;20342;-76
2023/06/28 06:09:28;;;;;;;10.98;4.35;;;15.70;99.90;;;;;;6248914;22;20023;-76
2023/06/28 06:11:54;;;;;;;9.60;4.90;;;15.70;99.90;;;;;;6248238;22;20046;-76
2023/06/28 06:14:19;;;;;;;9.30;4.43;;;15.70;99.90;;;;;;6326204;22;20339;-76
2023/06/28 06:16:45;;;;;;;10.60;4.40;;;15.60;99.90;;;;;;6326698;22;20094;-76
2023/06/28 06:19:10;;;;;;;10.95;4.65;;;15.80;99.90;;;;;;6247440;22;20015;-76
2023/06/28 06:21:36;;;;;;;11.55;5.28;;;15.80;99.90;;;;;;6248719;22;20066;-76
2023/06/28 06:24:07;;;;;;;8.48;4.60;;;15.90;99.90;;;;;;6249206;22;20377;-82
2023/06/28 06:26:33;;;;;;;13.00;4.87;;;15.80;99.90;;;;;;6274584;22;20008;-77
2023/06/28 06:28:59;;;;;;;10.23;4.75;;;15.90;99.90;;;;;;6248861;22;20091;-76
2023/06/28 06:31:25;;;;;;;9.88;5.28;;;15.90;99.90;;;;;;6326742;22;20016;-77
2023/06/28 06:33:50;;;;;;;10.32;5.28;;;15.90;99.90;;;;;;6274796;22;20016;-77
2023/06/28 06:36:16;;;;;;;10.07;5.07;;;16.00;99.90;;;;;;6326699;22;20346;-77
2023/06/28 06:38:41;;;;;;;11.32;5.22;;;16.00;99.90;;;;;;6250089;22;20009;-76
2023/06/28 06:41:07;;;;;;;12.88;6.07;;;16.10;99.90;;;;;;6250763;22;20008;-77
2023/06/28 06:43:33;;;;;;;16.33;6.15;;;16.10;99.90;;;;;;6251054;22;20011;-77
2023/06/28 06:45:58;;;;;;;9.30;5.43;;;16.00;99.90;;;;;;6328616;22;20012;-77
2023/06/28 06:48:28;;;;;;;10.63;5.57;;;16.10;99.90;;;;;;6328044;22;20019;-77
2023/06/28 06:50:53;;;;;;;9.95;5.63;;;16.10;99.90;;;;;;6301309;22;20372;-77
2023/06/28 06:53:19;;;;;;;11.57;6.03;;;16.10;99.90;;;;;;6328440;22;20050;-77
2023/06/28 06:55:47;;;;;;;9.95;5.40;;;16.10;99.90;;;;;;6301901;22;20011;-77
2023/06/28 06:58:13;;;;;;;15.32;6.25;;;16.00;99.90;;;;;;6276147;22;20016;-76
2023/06/28 07:00:38;;;;;;;10.05;5.43;;;16.10;99.90;;;;;;6251191;22;20008;-77
2023/06/28 07:03:04;;;;;;;10.50;5.85;;;16.20;99.90;;;;;;6328157;22;20004;-77
2023/06/28 07:05:29;;;;;;;9.85;5.90;;;16.20;99.90;;;;;;6250611;22;20061;-76
2023/06/28 07:07:55;;;;;;;10.82;5.28;;;16.20;99.90;;;;;;6302134;22;20027;-78
2023/06/28 07:10:20;;;;;;;11.20;5.10;;;16.20;99.90;;;;;;6302313;22;20015;-77
2023/06/28 07:12:46;;;;;;;12.07;5.28;;;16.10;99.90;;;;;;6301788;22;20020;-76
2023/06/28 07:15:11;;;;;;;14.00;5.95;;;16.10;99.90;;;;;;6250622;22;20069;-77
2023/06/28 07:17:37;;;;;;;14.95;5.60;;;16.10;99.90;;;;;;6276560;22;20023;-76
2023/06/28 07:20:03;;;;;;;13.98;6.05;;;16.10;99.90;;;;;;6251045;22;20513;-76
2023/06/28 07:22:28;;;;;;;9.07;5.18;;;16.10;99.90;;;;;;6250316;22;20008;-77
2023/06/28 07:24:54;;;;;;;12.55;5.68;;;16.20;99.90;;;;;;6327443;22;20062;-76
2023/06/28 07:27:19;;;;;;;12.32;5.45;;;16.10;99.90;;;;;;6276346;22;20011;-76
2023/06/28 07:29:45;;;;;;;13.25;5.57;;;16.00;99.90;;;;;;6276740;22;20012;-75
2023/06/28 07:32:10;;;;;;;14.23;5.78;;;16.10;99.90;;;;;;6250830;22;20015;-75
2023/06/28 07:34:37;;;;;;;13.65;5.80;;;16.10;99.90;;;;;;6249546;22;20065;-75
2023/06/28 07:37:05;;;;;;;11.70;5.47;;;16.10;99.90;;;;;;6275978;22;20008;-75
2023/06/28 07:39:32;;;;;;;10.52;5.80;;;16.20;99.90;;;;;;6276112;22;20476;-75
2023/06/28 07:41:58;;;;;;;12.77;6.20;;;16.10;99.90;;;;;;6250834;22;20141;-75
2023/06/28 07:44:23;;;;;;;10.50;5.95;;;16.20;99.90;;;;;;6275072;22;20461;-76
2023/06/28 07:46:49;;;;;;;12.35;5.35;;;16.20;99.90;;;;;;6328041;22;20134;-75
2023/06/28 07:49:15;;;;;;;11.95;6.20;;;16.20;99.90;;;;;;6250405;22;20015;-75
2023/06/28 07:51:40;;;;;;;14.43;6.00;;;16.30;99.90;;;;;;6327900;22;20062;-75
2023/06/28 07:54:06;;;;;;;11.15;6.13;;;16.30;99.90;;;;;;6275252;22;20019;-75
2023/06/28 07:56:32;;;;;;;11.95;5.57;;;16.30;99.90;;;;;;6327102;22;20015;-75
2023/06/28 07:59:00;;;;;;;13.05;6.30;;;16.30;99.90;;;;;;6327659;22;20012;-75
2023/06/28 08:01:26;;;;;;;11.80;6.65;;;16.30;99.90;;;;;;6276017;22;20323;-75
2023/06/28 08:03:51;;;;;;;12.85;6.20;;;16.30;99.90;;;;;;6327468;22;20138;-75
2023/06/28 08:06:17;;;;;;;12.18;6.10;;;16.40;99.90;;;;;;6327027;22;20370;-75
2023/06/28 08:08:42;;;;;;;9.68;6.05;;;16.40;99.90;;;;;;6276019;22;20027;-75
2023/06/28 08:11:08;;;;;;;10.80;6.28;;;16.40;99.90;;;;;;6250487;22;20421;-74
2023/06/28 08:13:34;;;;;;;12.90;6.30;;;16.40;99.90;;;;;;6327161;22;20095;-74
2023/06/28 08:15:59;;;;;;;14.27;7.45;;;16.30;99.90;;;;;;6326546;22;20018;-74
2023/06/28 08:18:25;;;;;;;13.90;6.78;;;16.30;99.90;;;;;;6327514;22;20328;-74
2023/06/28 08:20:51;;;;;;;11.38;5.60;;;16.40;99.90;;;;;;6301437;22;20026;-74
2023/06/28 08:23:17;;;;;;;12.85;6.20;;;16.40;99.90;;;;;;6300992;22;20039;-73
2023/06/28 08:25:42;;;;;;;14.02;6.32;;;16.40;99.90;;;;;;6275014;22;20061;-73
2023/06/28 08:28:08;;;;;;;13.20;5.80;;;16.50;99.90;;;;;;6250224;22;20012;-73
2023/06/28 08:30:34;;;;;;;13.38;5.97;;;16.60;99.90;;;;;;6250184;22;20015;-73
2023/06/28 08:33:00;;;;;;;11.82;6.18;;;16.60;99.90;;;;;;6249682;22;20022;-73
2023/06/28 08:35:25;;;;;;;10.02;5.93;;;16.60;99.90;;;;;;6300632;22;20341;-73
2023/06/28 08:37:51;;;;;;;12.18;6.57;;;16.60;99.90;;;;;;6327574;22;20030;-73
2023/06/28 08:40:17;;;;;;;13.80;6.82;;;16.60;99.90;;;;;;6327814;22;20007;-73
2023/06/28 08:42:45;;;;;;;11.90;6.13;;;16.60;99.90;;;;;;6249745;22;20008;-73
2023/06/28 08:45:12;;;;;;;13.63;7.30;;;16.70;99.90;;;;;;6249643;22;20449;-73
2023/06/28 08:47:39;;;;;;;11.50;6.43;;;16.70;99.90;;;;;;6275666;22;20380;-74
2023/06/28 08:50:06;;;;;;;13.32;7.22;;;16.70;99.90;;;;;;6275174;22;20068;-73
2023/06/28 08:52:35;;;;;;;11.65;7.15;;;16.80;99.90;;;;;;6275577;22;20008;-72
2023/06/28 08:55:03;;;;;;;11.52;6.95;;;16.80;99.90;;;;;;6249983;22;20008;-73
2023/06/28 08:57:30;;;;;;;14.77;6.88;;;16.80;99.90;;;;;;6249406;22;20410;-73
2023/06/28 08:59:55;;;;;;;12.82;7.05;;;16.90;99.90;;;;;;6326926;22;20016;-73
2023/06/28 09:02:22;;;;;;;12.23;7.43;;;16.90;99.90;;;;;;6275169;22;20346;-73
2023/06/28 09:04:49;;;;;;;14.68;7.72;;;16.90;99.90;;;;;;6249904;22;20043;-73
2023/06/28 09:07:17;;;;;;;11.35;7.25;;;16.90;99.90;;;;;;6274916;22;20012;-74
2023/06/28 09:09:46;;;;;;;11.82;7.80;;;16.90;99.90;;;;;;6249807;22;20069;-73
2023/06/28 09:12:12;;;;;;;12.50;6.93;;;16.90;99.90;;;;;;6249485;22;20016;-73
2023/06/28 09:14:38;;;;;;;11.98;7.43;;;17.00;99.90;;;;;;6275339;22;20036;-73
2023/06/28 09:17:04;;;;;;;11.25;7.55;;;17.00;99.90;;;;;;6273704;22;20065;-74
2023/06/28 09:19:30;;;;;;;11.93;7.10;;;17.00;99.90;;;;;;6274844;22;20020;-74
2023/06/28 09:22:04;;;;;;;12.68;8.25;;;17.00;99.90;;;;;;6326730;22;20047;-74
2023/06/28 09:24:37;;;;;;;12.43;8.20;;;17.10;99.90;;;;;;6274822;22;20010;-74
2023/06/28 09:27:07;;;;;;;12.77;8.95;;;17.10;99.90;;;;;;6274985;22;20011;-73
2023/06/28 09:29:34;;;;;;;13.60;8.70;;;17.10;99.90;;;;;;6275100;22;20019;-74
2023/06/28 09:32:00;;;;;;;13.38;9.10;;;17.10;99.90;;;;;;6274753;22;20018;-74
2023/06/28 09:34:26;;;;;;;13.18;9.20;;;17.20;99.90;;;;;;6275173;22;20015;-73
2023/06/28 09:36:56;;;;;;;14.15;9.40;;;17.20;99.90;;;;;;6249686;22;20438;-73
2023/06/28 09:39:25;;;;;;;14.27;9.60;;;17.20;99.90;;;;;;6249106;22;20016;-73
2023/06/28 09:41:51;;;;;;;16.63;9.45;;;17.20;99.90;;;;;;6275181;22;20019;-73
2023/06/28 09:44:30;;;;;;;16.40;9.95;;;17.20;99.90;;;;;;6300403;22;20012;-73
2023/06/28 09:47:04;;;;;;;13.77;9.60;;;17.10;99.90;;;;;;6275160;22;20046;-73
2023/06/28 09:49:30;;;;;;;15.30;9.77;;;17.10;99.90;;;;;;6249083;22;20016;-73
2023/06/28 09:52:01;;;;;;;16.42;9.93;;;17.20;99.90;;;;;;6327185;22;20448;-73
2023/06/28 09:54:28;;;;;;;;;;;17.20;99.90;;;;;;6249868;22;20090;-73
2023/06/28 09:56:54;;;;;;;16.65;11.25;;;17.20;99.90;;;;;;6249112;22;19911;-73
2023/06/28 09:59:22;;;;;;;19.30;11.25;;;17.20;99.90;;;;;;6249359;22;20038;-73
2023/06/28 10:01:50;;;;;;;21.42;12.38;;;17.30;99.90;;;;;;6274968;22;20010;-73
2023/06/28 10:04:17;;;;;;;18.08;11.68;;;17.30;99.90;;;;;;6249052;22;20012;-73
2023/06/28 10:06:44;;;;;;;19.23;11.48;;;17.30;99.90;;;;;;6274046;22;20016;-73
2023/06/28 10:09:15;;;;;;;17.67;10.50;;;17.20;99.90;;;;;;6273832;22;20019;-73
2023/06/28 10:11:51;;;;;;;17.63;11.90;;;17.20;99.90;;;;;;6274937;22;20451;-74
2023/06/28 10:14:19;;;;;;;19.73;13.63;;;17.30;99.90;;;;;;6275112;22;20115;-74
2023/06/28 10:16:45;;;;;;;17.25;12.88;;;17.20;99.90;;;;;;6274122;22;20042;-74
2023/06/28 10:19:11;;;;;;;19.38;12.88;;;17.20;99.90;;;;;;6248881;22;20012;-74
2023/06/28 10:21:39;;;;;;;17.48;12.05;;;17.20;99.90;;;;;;6274846;22;20014;-74
2023/06/28 10:24:06;;;;;;;17.77;12.43;;;17.30;99.90;;;;;;6274918;22;20007;-74
2023/06/28 10:26:33;;;;;;;18.67;13.15;;;17.30;99.90;;;;;;6274250;22;20016;-74
2023/06/28 10:29:00;;;;;;;18.35;11.48;;;17.30;99.90;;;;;;6274896;22;20012;-74
2023/06/28 10:31:26;;;;;;;18.88;12.48;;;17.30;99.90;;;;;;6274476;22;20063;-74
2023/06/28 10:33:54;;;;;;;18.75;12.88;;;17.30;99.90;;;;;;6249252;22;20095;-74
2023/06/28 10:36:21;;;;;;;20.70;13.52;;;17.30;99.90;;;;;;6274213;22;20043;-74
2023/06/28 10:38:46;;;;;;;19.58;13.38;;;17.30;99.90;;;;;;6247473;22;20016;-73
2023/06/28 10:41:16;;;;;;;19.30;12.30;;;17.30;99.90;;;;;;6274836;22;20015;-73
2023/06/28 10:43:42;;;;;;;18.30;12.80;;;17.30;99.90;;;;;;6249679;22;20069;-73
2023/06/28 10:46:30;;;;;;;18.90;12.38;;;17.30;99.90;;;;;;6274590;22;20012;-76
2023/06/28 10:48:59;;;;;;;19.58;12.75;;;17.30;99.90;;;;;;6249654;22;20354;-74
2023/06/28 10:51:30;;;;;;;20.42;12.57;;;17.30;99.90;;;;;;6272382;22;20039;-75
2023/06/28 10:54:10;;;;;;;17.27;12.25;;;17.40;99.90;;;;;;6274142;22;20019;-75
2023/06/28 10:56:46;;;;;;;19.23;12.32;;;17.40;99.90;;;;;;6273904;22;20090;-75
2023/06/28 10:59:12;;;;;;;18.23;12.13;;;17.40;99.90;;;;;;6274668;22;20476;-75
2023/06/28 11:01:40;;;;;;;22.27;12.68;;;17.40;99.90;;;;;;6249099;22;20040;-74
2023/06/28 11:04:16;;;;;;;17.10;11.68;;;17.40;99.90;;;;;;6247925;22;20011;-75
2023/06/28 11:06:42;;;;;;;20.75;12.40;;;17.40;99.90;;;;;;6248329;22;20446;-74
2023/06/28 11:09:14;;;;;;;16.33;11.57;;;17.50;99.90;;;;;;6249060;22;20052;-75
2023/06/28 11:11:57;;;;;;;18.00;12.25;;;17.60;99.90;;;;;;6274185;22;20011;-74
2023/06/28 11:14:27;;;;;;;17.90;12.15;;;17.60;99.90;;;;;;6249152;22;20035;-74
2023/06/28 11:17:10;;;;;;;16.13;11.55;;;17.60;99.90;;;;;;6274600;22;20061;-74
2023/06/28 11:19:38;;;;;;;16.83;11.68;;;17.60;99.90;;;;;;6248736;22;20023;-75
2023/06/28 11:22:03;;;;;;;17.85;12.05;;;17.60;99.90;;;;;;6274512;22;20011;-75
2023/06/28 11:24:29;;;;;;;16.95;12.02;;;17.60;99.90;;;;;;6275776;22;20066;-74
2023/06/28 11:26:55;;;;;;;19.13;11.70;;;17.60;99.90;;;;;;6250752;22;20014;-74
2023/06/28 11:29:21;;;;;;;15.45;11.82;;;17.60;99.90;;;;;;6250733;22;20442;-75
2023/06/28 11:31:52;;;;;;;17.90;12.05;;;17.60;99.90;;;;;;6275715;22;20016;-74
2023/06/28 11:34:19;;;;;;;17.17;11.60;;;17.60;99.90;;;;;;6250892;22;20011;-75
2023/06/28 11:36:46;;;;;;;18.27;11.82;;;17.70;99.90;;;;;;6249819;22;20012;-74
2023/06/28 11:39:16;;;;;;;16.13;11.35;;;17.70;99.90;;;;;;6250622;22;20065;-75
2023/06/28 11:41:43;;;;;;;17.35;12.10;;;17.70;99.90;;;;;;6250252;22;20083;-75
2023/06/28 11:44:09;;;;;;;16.23;11.52;;;17.70;99.90;;;;;;6250798;22;20012;-75
2023/06/28 11:46:35;;;;;;;16.13;11.13;;;17.70;99.90;;;;;;6250642;22;20346;-75
2023/06/28 11:49:01;;;;;;;16.40;12.32;;;17.90;99.90;;;;;;6276191;22;20450;-75
2023/06/28 11:51:26;;;;;;;17.90;12.23;;;17.80;99.90;;;;;;6250021;22;20019;-75
2023/06/28 11:53:55;;;;;;;17.13;12.52;;;17.90;99.90;;;;;;6275463;22;20018;-76
2023/06/28 11:56:34;;;;;;;17.42;12.30;;;17.90;99.90;;;;;;6250160;22;20458;-75
2023/06/28 11:59:14;;;;;;;16.00;12.02;;;17.90;99.90;;;;;;6250364;22;20086;-74
2023/06/28 12:01:40;;;;;;;15.75;11.52;;;17.90;99.90;;;;;;6250065;22;20008;-75
2023/06/28 12:04:15;;;;;;;15.63;12.85;;;17.90;99.90;;;;;;6275992;22;20385;-75
2023/06/28 12:06:43;;;;;;;15.20;11.80;;;17.90;99.90;;;;;;6249905;22;20019;-75
2023/06/28 12:09:18;;;;;;;15.38;12.20;;;17.90;99.90;;;;;;6249990;22;20015;-75
2023/06/28 12:11:58;;;;;;;17.92;12.27;;;17.90;99.90;;;;;;6250046;22;20016;-75
2023/06/28 12:14:25;;;;;;;18.80;12.07;;;17.90;99.90;;;;;;6250383;22;20016;-75
2023/06/28 12:16:51;;;;;;;15.82;11.77;;;17.90;99.90;;;;;;6250349;22;20141;-75
2023/06/28 12:19:18;;;;;;;13.68;11.75;;;18.00;99.90;;;;;;6275582;22;20015;-76
2023/06/28 12:21:44;;;;;;;16.75;11.95;;;18.00;99.90;;;;;;6275951;22;20008;-75
2023/06/28 12:24:13;;;;;;;14.35;11.93;;;18.00;99.90;;;;;;6249956;22;20030;-75
2023/06/28 12:26:42;;;;;;;15.63;12.43;;;18.00;99.90;;;;;;6250335;22;20011;-75
2023/06/28 12:29:08;;;;;;;16.27;12.13;;;18.00;99.90;;;;;;6275916;22;20061;-75
2023/06/28 12:31:48;;;;;;;15.60;12.77;;;18.10;99.90;;;;;;6249762;22;20012;-75
2023/06/28 12:34:24;;;;;;;16.85;12.57;;;18.00;99.90;;;;;;6274820;22;20015;-75
2023/06/28 12:36:57;;;;;;;15.00;12.90;;;18.00;99.90;;;;;;6250068;22;20333;-75